Time;durP1;ratioP1;P1;durP2;ratioP2;P2;SDS_P1;SDS_P2;PMS_P1;PMS_P2;Temp;Humidity;BMP_temperature;BMP_pressure;BME280_temperature;BME280_humidity;BME280_pressure;Samples;Min_cycle;Max_cycle;Signal;HPM_P1;HPM_P2
2022/01/07 00:00:06;;;;;;;0.23;0.23;;;;;;;2.09;83.43;101387.22;5024546;28;20276;-71
2022/01/07 00:02:31;;;;;;;0.30;0.30;;;;;;;2.05;83.34;101378.34;5038469;28;20040;-72
2022/01/07 00:04:57;;;;;;;0.37;0.37;;;;;;;2.01;83.71;101372.84;5038946;28;20654;-73
2022/01/07 00:07:22;;;;;;;0.20;0.20;;;;;;;2.04;83.68;101363.66;5038344;28;20400;-77
2022/01/07 00:09:48;;;;;;;0.20;0.20;;;;;;;2.03;83.96;101359.28;5025366;28;20403;-75
2022/01/07 00:12:15;;;;;;;0.20;0.20;;;;;;;2.04;83.54;101370.47;5038304;28;20026;-74
2022/01/07 00:14:40;;;;;;;0.27;0.27;;;;;;;2.02;83.72;101372.06;5038922;28;20040;-74
2022/01/07 00:17:06;;;;;;;0.20;0.20;;;;;;;2.01;84.06;101368.59;5038777;28;20280;-73
2022/01/07 00:19:31;;;;;;;0.30;0.30;;;;;;;2.02;83.82;101359.16;5037949;28;20021;-75
2022/01/07 00:21:56;;;;;;;0.30;0.30;;;;;;;2.05;83.84;101368.03;5039035;28;20033;-72
2022/01/07 00:24:22;;;;;;;0.30;0.30;;;;;;;2.06;84.07;101361.19;5037448;28;20081;-76
2022/01/07 00:26:47;;;;;;;0.20;0.20;;;;;;;2.03;83.97;101354.09;5038583;28;20116;-74
2022/01/07 00:29:12;;;;;;;0.20;0.20;;;;;;;2.08;84.08;101356.09;5030433;28;20396;-72
2022/01/07 00:31:38;;;;;;;0.30;0.30;;;;;;;2.06;84.20;101354.31;5033368;28;20399;-75
2022/01/07 00:34:03;;;;;;;0.20;0.20;;;;;;;2.08;84.12;101338.00;5037738;28;20033;-73
2022/01/07 00:36:29;;;;;;;0.23;0.23;;;;;;;2.08;84.26;101340.59;5038522;28;20029;-73
2022/01/07 00:38:54;;;;;;;0.27;0.27;;;;;;;2.02;84.57;101331.66;5033667;28;20351;-74
2022/01/07 00:41:19;;;;;;;0.30;0.30;;;;;;;2.02;84.94;101330.72;5025368;28;20353;-74
2022/01/07 00:43:45;;;;;;;0.20;0.20;;;;;;;2.03;84.62;101323.09;5027917;28;20068;-73
2022/01/07 00:46:10;;;;;;;0.20;0.20;;;;;;;2.09;84.67;101321.72;5027781;28;20415;-74
2022/01/07 00:48:35;;;;;;;0.27;0.27;;;;;;;2.12;84.43;101320.25;5019110;28;20048;-74
2022/01/07 00:51:01;;;;;;;0.20;0.20;;;;;;;2.17;84.25;101308.56;5020026;28;20488;-73
2022/01/07 00:53:26;;;;;;;0.10;0.10;;;;;;;2.19;84.30;101311.25;5019378;28;20304;-76
2022/01/07 00:55:52;;;;;;;0.20;0.20;;;;;;;2.19;84.17;101316.44;5019888;28;20068;-74
2022/01/07 00:58:17;;;;;;;0.20;0.20;;;;;;;2.21;84.53;101314.84;5019611;28;20438;-74
2022/01/07 01:00:42;;;;;;;0.20;0.20;;;;;;;2.19;84.66;101299.22;5019603;28;20042;-73
2022/01/07 01:03:08;;;;;;;0.20;0.20;;;;;;;2.22;85.00;101303.72;5037040;28;20035;-74
2022/01/07 01:05:33;;;;;;;0.20;0.20;;;;;;;2.26;84.92;101310.00;5039459;28;20041;-71
2022/01/07 01:07:59;;;;;;;0.23;0.23;;;;;;;2.26;85.26;101300.56;5039011;28;20380;-75
2022/01/07 01:10:25;;;;;;;0.20;0.20;;;;;;;2.27;84.95;101301.44;5039416;28;20412;-73
2022/01/07 01:12:51;;;;;;;0.20;0.20;;;;;;;2.33;84.87;101299.28;5038266;28;20029;-73
2022/01/07 01:15:20;;;;;;;0.20;0.20;;;;;;;2.34;85.20;101290.75;5038662;28;20098;-73
2022/01/07 01:17:46;;;;;;;0.20;0.20;;;;;;;2.35;84.76;101289.06;5021605;28;20284;-72
2022/01/07 01:20:12;;;;;;;0.20;0.20;;;;;;;2.37;84.99;101288.34;5039694;28;20669;-73
2022/01/07 01:22:37;;;;;;;0.20;0.20;;;;;;;2.34;85.08;101288.16;5006872;28;20120;-73
2022/01/07 01:25:04;;;;;;;0.10;0.10;;;;;;;2.39;85.00;101285.88;5019610;28;20025;-74
2022/01/07 01:27:29;;;;;;;0.20;0.20;;;;;;;2.38;84.69;101279.84;5019587;28;20032;-76
2022/01/07 01:29:55;;;;;;;0.10;0.10;;;;;;;2.38;84.54;101282.41;5019051;28;20030;-72
2022/01/07 01:32:20;;;;;;;0.10;0.10;;;;;;;2.34;84.96;101267.47;5029346;28;20033;-80
2022/01/07 01:34:46;;;;;;;0.30;0.30;;;;;;;2.38;84.97;101271.16;5038634;28;20129;-74
2022/01/07 01:37:11;;;;;;;0.20;0.20;;;;;;;2.37;85.00;101271.97;5037840;28;20244;-72
2022/01/07 01:39:36;;;;;;;0.10;0.10;;;;;;;2.36;85.13;101278.81;5038435;28;20104;-72
2022/01/07 01:42:02;;;;;;;0.20;0.20;;;;;;;2.41;85.05;101269.69;5030103;28;20103;-72
2022/01/07 01:44:28;;;;;;;0.10;0.10;;;;;;;2.37;84.88;101254.75;5017849;28;20069;-72
2022/01/07 01:46:53;;;;;;;0.20;0.20;;;;;;;2.38;85.09;101248.81;5017383;28;20030;-74
2022/01/07 01:49:22;;;;;;;0.30;0.30;;;;;;;2.37;85.24;101247.00;5018222;28;20376;-72
2022/01/07 01:51:49;;;;;;;0.20;0.20;;;;;;;2.39;85.41;101257.44;5022680;28;20025;-72
2022/01/07 01:54:15;;;;;;;0.20;0.20;;;;;;;2.40;85.39;101246.31;5038523;28;20029;-73
2022/01/07 01:56:41;;;;;;;0.17;0.17;;;;;;;2.40;85.42;101260.16;5037438;28;20279;-71
2022/01/07 01:59:07;;;;;;;0.20;0.20;;;;;;;2.41;85.41;101240.34;5038444;28;20032;-68
2022/01/07 02:01:33;;;;;;;0.10;0.10;;;;;;;2.38;85.56;101229.81;5034168;28;20284;-77
2022/01/07 02:03:59;;;;;;;0.10;0.10;;;;;;;2.47;84.77;101241.69;5018611;28;20037;-71
2022/01/07 02:06:24;;;;;;;0.20;0.20;;;;;;;2.51;84.99;101234.13;5031010;28;20599;-71
2022/01/07 02:08:50;;;;;;;0.10;0.10;;;;;;;2.51;85.10;101228.94;5037963;28;20109;-72
2022/01/07 02:11:15;;;;;;;0.10;0.10;;;;;;;2.49;85.01;101226.25;5036756;28;20037;-74
2022/01/07 02:13:41;;;;;;;0.20;0.20;;;;;;;2.47;85.50;101221.00;5023837;28;20061;-71
2022/01/07 02:16:06;;;;;;;0.17;0.17;;;;;;;2.46;85.46;101214.03;5037365;28;20364;-74
2022/01/07 02:18:31;;;;;;;0.30;0.30;;;;;;;2.50;85.63;101224.56;5036643;28;20293;-74
2022/01/07 02:20:57;;;;;;;0.17;0.17;;;;;;;2.51;84.67;101224.69;5038031;28;20040;-70
2022/01/07 02:23:22;;;;;;;0.20;0.20;;;;;;;2.47;85.56;101227.84;5020000;28;20034;-71
2022/01/07 02:25:49;;;;;;;0.20;0.20;;;;;;;2.41;85.62;101225.75;5017391;28;20282;-71
2022/01/07 02:28:14;;;;;;;0.10;0.10;;;;;;;2.41;85.66;101224.84;5017628;28;20380;-70
2022/01/07 02:30:40;;;;;;;0.20;0.20;;;;;;;2.42;85.47;101216.31;5017065;28;20299;-73
2022/01/07 02:33:05;;;;;;;0.20;0.20;;;;;;;2.40;85.63;101211.03;5032309;28;20029;-72
2022/01/07 02:35:33;;;;;;;0.20;0.20;;;;;;;2.33;86.49;101211.41;5037451;28;20029;-73
2022/01/07 02:37:59;;;;;;;0.10;0.10;;;;;;;2.35;86.34;101212.41;5019934;28;20052;-72
2022/01/07 02:40:25;;;;;;;0.20;0.20;;;;;;;2.36;86.54;101206.44;5017947;28;20679;-71
2022/01/07 02:42:51;;;;;;;0.20;0.20;;;;;;;2.35;86.34;101206.34;5016855;28;20048;-71
2022/01/07 02:45:16;;;;;;;0.13;0.13;;;;;;;2.35;86.75;101202.06;5017821;28;20038;-70
2022/01/07 02:50:14;;;;;;;0.30;0.30;;;;;;;2.32;87.03;101200.16;5036534;28;20044;-72
2022/01/07 02:52:39;;;;;;;0.27;0.27;;;;;;;2.33;87.11;101193.31;5036972;28;20346;-71
2022/01/07 02:55:05;;;;;;;0.13;0.13;;;;;;;2.35;87.04;101196.00;5036955;28;20283;-69
2022/01/07 02:57:30;;;;;;;0.10;0.10;;;;;;;2.33;87.54;101177.81;5035300;28;20036;-71
2022/01/07 02:59:55;;;;;;;0.10;0.10;;;;;;;2.34;87.64;101182.19;5037598;28;20040;-75
2022/01/07 03:02:21;;;;;;;0.10;0.10;;;;;;;2.38;87.94;101175.53;5037053;28;20029;-71
2022/01/07 03:04:46;;;;;;;0.10;0.10;;;;;;;2.46;87.89;101190.78;5036794;28;20037;-70
2022/01/07 03:07:12;;;;;;;0.10;0.10;;;;;;;2.50;87.56;101184.13;5023044;28;20104;-71
2022/01/07 03:09:37;;;;;;;0.13;0.13;;;;;;;2.53;87.60;101180.81;5017595;28;20038;-73
2022/01/07 03:12:03;;;;;;;0.20;0.20;;;;;;;2.55;87.51;101180.13;5017105;28;20034;-71
2022/01/07 03:14:28;;;;;;;0.20;0.20;;;;;;;2.58;87.38;101175.19;5017454;28;20040;-69
2022/01/07 03:16:53;;;;;;;0.10;0.10;;;;;;;2.60;87.18;101178.75;5026407;28;20041;-79
2022/01/07 03:19:19;;;;;;;0.20;0.20;;;;;;;2.59;87.56;101161.44;5037452;28;20418;-71
2022/01/07 03:21:44;;;;;;;0.10;0.10;;;;;;;2.59;87.77;101155.38;5036628;28;20301;-69
2022/01/07 03:24:09;;;;;;;0.10;0.10;;;;;;;2.58;87.66;101148.41;5037198;28;20037;-72
2022/01/07 03:26:35;;;;;;;0.10;0.10;;;;;;;2.61;87.12;101149.50;5028897;28;20026;-70
2022/01/07 03:29:00;;;;;;;0.10;0.10;;;;;;;2.62;87.82;101153.00;5017428;28;20022;-70
2022/01/07 03:31:25;;;;;;;0.10;0.10;;;;;;;2.60;87.60;101139.97;5017575;28;20057;-73
2022/01/07 03:33:51;;;;;;;0.20;0.20;;;;;;;2.60;88.22;101137.38;5016087;28;20033;-71
2022/01/07 03:36:16;;;;;;;0.10;0.10;;;;;;;2.65;87.74;101135.09;5022033;28;20261;-70
2022/01/07 03:38:42;;;;;;;0.20;0.20;;;;;;;2.63;87.73;101136.69;5036668;28;20021;-76
2022/01/07 03:41:07;;;;;;;0.20;0.20;;;;;;;2.62;87.80;101121.97;5036990;28;20026;-69
2022/01/07 03:43:32;;;;;;;0.10;0.10;;;;;;;2.63;87.77;101125.44;5036374;28;20380;-71
2022/01/07 03:45:58;;;;;;;0.10;0.10;;;;;;;2.63;87.81;101118.59;5033989;28;20308;-71
2022/01/07 03:48:23;;;;;;;0.30;0.30;;;;;;;2.65;88.04;101113.50;5016799;28;20277;-71
2022/01/07 03:50:48;;;;;;;0.10;0.10;;;;;;;2.66;87.91;101105.84;5017031;28;20373;-71
2022/01/07 03:53:14;;;;;;;0.10;0.10;;;;;;;2.65;87.94;101093.72;5017082;28;20300;-70
2022/01/07 03:55:39;;;;;;;0.27;0.27;;;;;;;2.66;87.98;101100.69;5016522;28;20037;-70
2022/01/07 03:58:05;;;;;;;0.10;0.10;;;;;;;2.71;88.11;101078.59;5035814;28;20120;-72
2022/01/07 04:00:34;;;;;;;0.10;0.10;;;;;;;2.76;87.83;101078.91;5036010;28;20029;-73
2022/01/07 04:03:09;;;;;;;0.10;0.10;;;;;;;2.83;87.73;101085.34;5035510;28;20018;-71
2022/01/07 04:05:35;;;;;;;0.17;0.17;;;;;;;2.77;87.84;101083.28;5036310;28;20435;-70
2022/01/07 04:08:00;;;;;;;0.20;0.20;;;;;;;2.77;87.97;101082.34;5035822;28;20447;-72
2022/01/07 04:10:26;;;;;;;0.03;0.03;;;;;;;2.77;87.92;101088.44;5035844;28;20048;-72
2022/01/07 04:12:51;;;;;;;0.10;0.10;;;;;;;2.82;87.81;101100.00;5036589;28;20026;-72
2022/01/07 04:15:18;;;;;;;0.17;0.17;;;;;;;2.85;87.78;101097.59;5036653;28;20332;-70
2022/01/07 04:17:46;;;;;;;0.20;0.20;;;;;;;2.84;87.96;101094.88;5023850;28;20289;-72
2022/01/07 04:20:15;;;;;;;0.10;0.10;;;;;;;2.86;87.75;101082.97;5019574;28;20272;-71
2022/01/07 04:22:40;;;;;;;0.10;0.10;;;;;;;2.85;87.74;101091.50;5019956;28;20022;-71
2022/01/07 04:25:08;;;;;;;0.10;0.10;;;;;;;2.82;87.81;101081.88;5018867;28;20547;-71
2022/01/07 04:27:34;;;;;;;0.10;0.10;;;;;;;2.80;88.17;101080.00;5034069;28;20025;-73
2022/01/07 04:29:59;;;;;;;0.20;0.20;;;;;;;2.81;88.12;101095.59;5040113;28;20280;-70
2022/01/07 04:32:25;;;;;;;0.00;0.00;;;;;;;2.80;88.31;101078.28;5039302;28;20031;-71
2022/01/07 04:34:51;;;;;;;0.10;0.10;;;;;;;2.86;88.02;101090.72;5039702;28;20096;-73
2022/01/07 04:37:16;;;;;;;0.10;0.10;;;;;;;2.85;87.83;101082.06;5025984;28;20088;-71
2022/01/07 04:39:42;;;;;;;0.00;0.00;;;;;;;2.89;87.90;101085.75;5018867;28;20018;-72
2022/01/07 04:42:07;;;;;;;0.10;0.10;;;;;;;2.92;88.04;101078.16;5018893;28;20262;-70
2022/01/07 04:44:35;;;;;;;0.10;0.10;;;;;;;2.95;87.53;101077.47;5019520;28;20427;-71
2022/01/07 04:47:01;;;;;;;0.10;0.10;;;;;;;2.97;87.69;101076.78;5027407;28;20025;-71
2022/01/07 04:49:26;;;;;;;0.10;0.10;;;;;;;3.00;87.88;101078.66;5039290;28;20038;-71
2022/01/07 04:51:51;;;;;;;0.20;0.20;;;;;;;3.03;87.89;101073.66;5038895;28;20049;-72
2022/01/07 04:54:17;;;;;;;0.10;0.10;;;;;;;3.08;87.86;101081.72;5039327;28;20051;-72
2022/01/07 04:56:42;;;;;;;0.10;0.10;;;;;;;3.12;87.65;101078.53;5032989;28;20022;-74
2022/01/07 04:59:07;;;;;;;0.10;0.10;;;;;;;3.16;87.51;101081.41;5019466;28;20384;-72
2022/01/07 05:01:33;;;;;;;0.20;0.20;;;;;;;3.21;87.56;101068.75;5018962;28;20348;-71
2022/01/07 05:03:58;;;;;;;0.03;0.03;;;;;;;3.19;87.35;101065.19;5019494;28;20404;-72
2022/01/07 05:08:58;;;;;;;0.10;0.10;;;;;;;3.22;87.53;101067.94;5039136;28;20045;-72
2022/01/07 05:11:23;;;;;;;0.20;0.20;;;;;;;3.27;87.72;101079.50;5039252;28;20021;-72
2022/01/07 05:13:48;;;;;;;0.10;0.10;;;;;;;3.28;87.48;101068.34;5038695;28;20025;-71
2022/01/07 05:16:14;;;;;;;0.10;0.10;;;;;;;3.32;87.52;101071.09;5036868;28;20025;-71
2022/01/07 05:18:39;;;;;;;0.13;0.13;;;;;;;3.34;87.67;101077.25;5018394;28;20045;-69
2022/01/07 05:21:05;;;;;;;0.10;0.10;;;;;;;3.34;87.27;101078.16;5019390;28;20105;-73
2022/01/07 05:23:31;;;;;;;0.10;0.10;;;;;;;3.34;87.20;101079.84;5018526;28;20141;-73
2022/01/07 05:25:56;;;;;;;0.00;0.00;;;;;;;3.37;87.43;101075.75;5022563;28;20383;-71
2022/01/07 05:28:21;;;;;;;0.73;0.73;;;;;;;3.39;86.94;101084.53;5037638;28;20028;-73
2022/01/07 05:30:47;;;;;;;0.10;0.10;;;;;;;3.36;87.38;101071.38;5038585;28;20072;-73
2022/01/07 05:33:12;;;;;;;0.00;0.00;;;;;;;3.35;87.67;101081.66;5038448;28;20104;-70
2022/01/07 05:35:37;;;;;;;0.10;0.10;;;;;;;3.38;87.36;101081.84;5037120;28;20037;-73
2022/01/07 05:38:03;;;;;;;0.10;0.10;;;;;;;3.37;87.31;101073.16;5018111;28;20051;-74
2022/01/07 05:40:29;;;;;;;0.10;0.10;;;;;;;3.38;87.10;101076.66;5018787;28;20049;-73
2022/01/07 05:42:54;;;;;;;0.10;0.10;;;;;;;3.43;86.99;101075.25;5018809;28;20101;-75
2022/01/07 05:45:19;;;;;;;0.10;0.10;;;;;;;3.49;86.53;101078.19;5018566;28;20381;-74
2022/01/07 05:47:45;;;;;;;0.10;0.10;;;;;;;3.45;86.84;101073.66;5035344;28;20342;-75
2022/01/07 05:50:11;;;;;;;0.13;0.13;;;;;;;3.42;86.89;101061.41;5038999;28;20104;-73
2022/01/07 05:52:36;;;;;;;0.10;0.10;;;;;;;3.39;86.92;101070.69;5037743;28;20044;-73
2022/01/07 05:55:02;;;;;;;0.17;0.17;;;;;;;3.36;86.93;101071.38;5039166;28;20029;-74
2022/01/07 05:57:27;;;;;;;0.20;0.20;;;;;;;3.38;86.95;101074.97;5023393;28;20033;-76
2022/01/07 05:59:53;;;;;;;0.20;0.20;;;;;;;3.42;86.96;101092.47;5018738;28;20029;-75
2022/01/07 06:02:18;;;;;;;0.10;0.10;;;;;;;3.45;86.76;101094.34;5018582;28;20030;-73
2022/01/07 06:04:44;;;;;;;0.10;0.10;;;;;;;3.47;86.85;101092.75;5027031;28;20080;-72
2022/01/07 06:07:09;;;;;;;0.10;0.10;;;;;;;3.46;86.79;101103.00;5026051;28;20049;-73
2022/01/07 06:09:34;;;;;;;0.20;0.20;;;;;;;3.44;87.11;101083.09;5023791;28;20033;-74
2022/01/07 06:12:03;;;;;;;0.20;0.20;;;;;;;3.53;86.78;101089.63;5028642;28;20018;-74
2022/01/07 06:14:29;;;;;;;0.10;0.10;;;;;;;3.51;86.64;101091.25;5023096;28;20176;-74
2022/01/07 06:16:55;;;;;;;0.10;0.10;;;;;;;3.54;86.60;101091.41;5017548;28;20100;-73
2022/01/07 06:19:20;;;;;;;0.20;0.20;;;;;;;3.51;86.58;101086.06;5018147;28;20338;-73
2022/01/07 06:21:46;;;;;;;0.20;0.20;;;;;;;3.50;87.01;101087.78;5022097;28;20033;-74
2022/01/07 06:24:11;;;;;;;0.20;0.20;;;;;;;3.51;86.93;101094.75;5037217;28;20028;-70
2022/01/07 06:26:38;;;;;;;0.10;0.10;;;;;;;3.53;86.80;101081.88;5031821;28;20396;-78
2022/01/07 06:29:03;;;;;;;0.17;0.17;;;;;;;3.52;86.72;101065.44;5036731;28;20025;-75
2022/01/07 06:31:29;;;;;;;0.30;0.30;;;;;;;3.57;86.34;101068.31;5036513;28;20407;-76
2022/01/07 06:33:56;;;;;;;0.17;0.17;;;;;;;3.51;86.57;101063.66;5037237;28;20487;-76
2022/01/07 06:36:21;;;;;;;0.20;0.20;;;;;;;3.46;86.75;101071.94;5033175;28;20041;-74
2022/01/07 06:38:46;;;;;;;0.20;0.20;;;;;;;3.46;86.74;101079.69;5017535;28;20396;-76
2022/01/07 06:41:12;;;;;;;0.10;0.10;;;;;;;3.44;87.03;101090.00;5019027;28;20304;-74
2022/01/07 06:43:37;;;;;;;0.20;0.20;;;;;;;3.42;86.56;101083.78;5017236;28;20081;-74
2022/01/07 06:46:03;;;;;;;0.20;0.20;;;;;;;3.40;87.01;101085.41;5021877;28;20029;-76
2022/01/07 06:48:28;;;;;;;0.13;0.13;;;;;;;3.42;86.73;101088.97;5016386;28;20026;-76
2022/01/07 06:50:55;;;;;;;0.20;0.20;;;;;;;3.39;87.09;101087.13;5024116;28;20029;-74
2022/01/07 06:53:21;;;;;;;0.20;0.20;;;;;;;3.39;87.20;101088.81;5031838;28;20048;-75
2022/01/07 06:55:46;;;;;;;0.10;0.10;;;;;;;3.39;87.27;101089.72;5019472;28;20029;-74
2022/01/07 06:58:12;;;;;;;0.10;0.10;;;;;;;3.38;87.18;101084.44;5017510;28;20040;-74
2022/01/07 07:00:37;;;;;;;0.10;0.10;;;;;;;3.40;87.06;101081.13;5029579;28;20037;-76
2022/01/07 07:03:02;;;;;;;0.10;0.10;;;;;;;3.38;87.05;101084.44;5036724;28;20147;-75
2022/01/07 07:05:28;;;;;;;0.10;0.10;;;;;;;3.36;87.23;101073.97;5036682;28;20376;-74
2022/01/07 07:07:53;;;;;;;0.10;0.10;;;;;;;3.36;86.66;101075.69;5037196;28;20392;-74
2022/01/07 07:10:18;;;;;;;0.20;0.20;;;;;;;3.34;86.91;101066.91;5037299;28;20025;-77
2022/01/07 07:12:44;;;;;;;0.20;0.20;;;;;;;3.26;87.00;101063.84;5036067;28;20017;-76
2022/01/07 07:15:09;;;;;;;0.10;0.10;;;;;;;3.25;87.05;101060.34;5037034;28;20021;-75
2022/01/07 07:17:35;;;;;;;0.20;0.20;;;;;;;3.24;87.40;101068.06;5035961;28;20049;-74
2022/01/07 07:20:02;;;;;;;0.20;0.20;;;;;;;3.18;87.01;101067.66;5036414;28;20040;-77
2022/01/07 07:22:28;;;;;;;0.10;0.10;;;;;;;3.19;87.35;101062.59;5036438;28;20025;-77
2022/01/07 07:24:53;;;;;;;0.13;0.13;;;;;;;3.15;87.33;101066.69;5037221;28;20075;-78
2022/01/07 07:27:19;;;;;;;0.20;0.20;;;;;;;3.14;87.26;101076.94;5035959;28;20288;-76
2022/01/07 07:29:44;;;;;;;0.20;0.20;;;;;;;3.14;87.35;101076.94;5036801;28;20037;-71
2022/01/07 07:32:11;;;;;;;0.30;0.30;;;;;;;3.19;87.35;101062.59;5031153;28;20021;-77
2022/01/07 07:37:05;;;;;;;0.13;0.13;;;;;;;3.18;87.15;101058.22;5017328;28;20118;-75
2022/01/07 07:39:31;;;;;;;0.13;0.13;;;;;;;3.15;87.59;101060.59;5033140;28;20120;-74
2022/01/07 07:41:58;;;;;;;0.10;0.10;;;;;;;3.13;87.16;101064.78;5036126;28;20029;-72
2022/01/07 07:44:23;;;;;;;0.20;0.20;;;;;;;3.13;87.35;101063.09;5037142;28;20284;-76
2022/01/07 07:46:48;;;;;;;0.10;0.10;;;;;;;3.12;87.20;101070.78;5034995;28;20064;-77
2022/01/07 07:49:15;;;;;;;0.20;0.20;;;;;;;3.15;87.30;101076.13;5036759;28;20088;-81
2022/01/07 07:51:41;;;;;;;0.10;0.10;;;;;;;3.11;87.08;101074.16;5022824;28;20025;-80
2022/01/07 07:54:06;;;;;;;0.10;0.10;;;;;;;3.10;87.17;101077.53;5020729;28;20022;-76
2022/01/07 07:56:32;;;;;;;0.10;0.10;;;;;;;3.11;87.33;101081.94;5020460;28;20376;-75
2022/01/07 07:58:58;;;;;;;0.10;0.10;;;;;;;3.12;87.12;101078.53;5020305;28;20384;-80
2022/01/07 08:01:24;;;;;;;0.10;0.10;;;;;;;3.12;86.96;101078.53;5020092;28;20030;-75
2022/01/07 08:03:50;;;;;;;0.10;0.10;;;;;;;3.05;87.03;101082.41;5018908;28;20030;-74
2022/01/07 08:06:16;;;;;;;0.07;0.07;;;;;;;3.07;86.97;101088.59;5039745;28;20059;-77
2022/01/07 08:08:42;;;;;;;0.17;0.17;;;;;;;3.04;87.03;101082.34;5058624;28;20025;-76
2022/01/07 08:11:10;;;;;;;0.10;0.10;;;;;;;3.00;87.09;101087.31;5039991;28;20060;-75
2022/01/07 08:16:23;;;;;;;0.10;0.10;;;;;;;3.04;87.15;101090.09;5039881;28;20040;-75
2022/01/07 08:18:50;;;;;;;0.20;0.20;;;;;;;3.06;87.13;101088.50;5038930;28;20104;-76
2022/01/07 08:21:17;;;;;;;0.00;0.00;;;;;;;3.08;87.06;101087.81;5023035;28;20443;-78
2022/01/07 08:23:44;;;;;;;0.10;0.10;;;;;;;3.11;87.06;101087.97;5038998;28;20105;-76
2022/01/07 08:26:10;;;;;;;0.10;0.10;;;;;;;3.14;86.93;101082.09;5039581;28;20053;-77
2022/01/07 08:28:41;;;;;;;0.20;0.20;;;;;;;3.11;86.79;101080.22;5020145;28;20072;-78
2022/01/07 08:36:19;;;;;;;0.17;0.17;;;;;;;3.01;87.23;101083.91;5020025;28;20033;-74
2022/01/07 08:38:44;;;;;;;0.13;0.13;;;;;;;3.13;86.70;101083.78;5019471;28;20546;-76
2022/01/07 08:41:11;;;;;;;0.30;0.30;;;;;;;3.14;86.21;101074.34;5020270;28;20049;-75
2022/01/07 08:43:37;;;;;;;0.17;0.17;;;;;;;3.23;86.48;101071.44;5018481;28;20042;-76
2022/01/07 08:46:06;;;;;;;0.20;0.20;;;;;;;3.29;86.32;101079.56;5020582;28;20026;-77
2022/01/07 08:48:32;;;;;;;0.10;0.10;;;;;;;3.34;86.03;101072.97;5018460;28;20396;-72
2022/01/07 08:50:57;;;;;;;0.23;0.23;;;;;;;3.37;85.93;101067.97;5021054;28;20025;-73
2022/01/07 08:53:23;;;;;;;0.30;0.30;;;;;;;3.45;85.81;101076.25;5037544;28;20033;-74
2022/01/07 08:55:49;;;;;;;0.10;0.10;;;;;;;3.56;85.78;101072.59;5029800;28;20022;-73
2022/01/07 08:58:15;;;;;;;0.30;0.30;;;;;;;3.66;85.17;101078.31;5035403;28;20120;-73
2022/01/07 09:00:40;;;;;;;0.10;0.10;;;;;;;3.70;84.93;101070.84;5032653;28;20036;-75
2022/01/07 09:03:06;;;;;;;0.20;0.20;;;;;;;3.72;85.34;101073.50;5038813;28;20342;-75
2022/01/07 09:05:32;;;;;;;0.20;0.20;;;;;;;3.73;85.08;101067.53;5038184;28;20065;-74
2022/01/07 09:07:57;;;;;;;0.30;0.30;;;;;;;3.76;85.26;101066.81;5039004;28;20040;-72
2022/01/07 09:10:23;;;;;;;0.13;0.13;;;;;;;3.77;85.59;101074.69;5038256;28;20033;-74
2022/01/07 09:12:49;;;;;;;0.20;0.20;;;;;;;3.85;85.46;101065.69;5038399;28;20025;-76
2022/01/07 09:15:15;;;;;;;0.30;0.30;;;;;;;4.04;85.36;101064.16;5038385;28;20376;-77
2022/01/07 09:17:41;;;;;;;0.53;0.53;;;;;;;4.20;85.10;101054.69;5038303;28;20029;-71
2022/01/07 09:20:08;;;;;;;0.20;0.20;;;;;;;4.30;84.30;101067.38;5038655;28;20048;-72
2022/01/07 09:22:34;;;;;;;0.20;0.20;;;;;;;4.42;84.03;101074.97;5037770;28;20048;-71
2022/01/07 09:25:00;;;;;;;0.40;0.40;;;;;;;4.54;84.04;101074.75;5038759;28;20045;-77
2022/01/07 09:27:25;;;;;;;0.20;0.20;;;;;;;4.64;83.33;101071.00;5038680;28;20033;-71
2022/01/07 09:29:51;;;;;;;0.30;0.30;;;;;;;4.67;82.79;101063.41;5037834;28;20025;-74
2022/01/07 09:32:16;;;;;;;0.40;0.40;;;;;;;4.67;81.96;101068.59;5037372;28;20029;-75
2022/01/07 09:34:42;;;;;;;0.40;0.40;;;;;;;4.57;82.65;101069.75;5037509;28;20033;-73
2022/01/07 09:37:07;;;;;;;0.30;0.30;;;;;;;4.52;82.22;101066.91;5038234;28;20152;-73
2022/01/07 09:39:33;;;;;;;0.30;0.30;;;;;;;4.45;82.34;101072.56;5037841;28;20036;-74
2022/01/07 09:42:00;;;;;;;0.40;0.40;;;;;;;4.30;83.04;101066.50;5037139;28;20088;-78
2022/01/07 09:44:25;;;;;;;0.37;0.37;;;;;;;4.29;83.10;101070.78;5036432;28;20038;-74
2022/01/07 09:46:51;;;;;;;0.40;0.40;;;;;;;4.26;83.39;101065.41;5036883;28;20055;-75
2022/01/07 09:49:17;;;;;;;0.30;0.30;;;;;;;4.25;82.94;101068.81;5031362;28;20044;-75
2022/01/07 09:51:43;;;;;;;0.40;0.40;;;;;;;4.14;83.29;101068.19;5030523;28;20025;-74
2022/01/07 09:54:09;;;;;;;0.30;0.30;;;;;;;4.08;83.62;101065.25;5030684;28;20079;-73
2022/01/07 09:56:34;;;;;;;0.30;0.30;;;;;;;4.04;83.86;101071.06;5017479;28;20087;-72
2022/01/07 09:59:04;;;;;;;0.60;0.60;;;;;;;3.99;84.00;101069.09;5017705;28;20397;-71
2022/01/07 10:01:30;;;;;;;0.40;0.40;;;;;;;4.01;83.97;101063.09;5028824;28;20030;-75
2022/01/07 10:03:56;;;;;;;0.30;0.30;;;;;;;4.03;83.65;101071.88;5033014;28;20037;-73
2022/01/07 10:06:23;;;;;;;0.30;0.30;;;;;;;4.06;83.87;101072.03;5036635;28;20030;-76
2022/01/07 10:09:10;;;;;;;0.30;0.30;;;;;;;4.17;83.38;101068.34;5027335;28;20373;-73
2022/01/07 10:11:37;;;;;;;0.30;0.30;;;;;;;4.33;82.51;101082.22;5028623;28;20040;-73
2022/01/07 10:14:17;;;;;;;0.23;0.23;;;;;;;4.38;81.88;101076.47;5037554;28;20060;-74
2022/01/07 10:16:47;;;;;;;0.40;0.40;;;;;;;4.54;81.35;101087.72;5023978;28;20029;-72
2022/01/07 10:19:29;;;;;;;0.30;0.30;;;;;;;4.56;81.55;101074.84;5021947;28;20132;-72
2022/01/07 10:21:56;;;;;;;0.23;0.23;;;;;;;4.46;81.54;101070.84;5028085;28;20030;-72
2022/01/07 10:24:22;;;;;;;0.20;0.20;;;;;;;4.39;82.74;101064.41;5021207;28;20029;-70
2022/01/07 10:27:08;;;;;;;0.30;0.30;;;;;;;4.40;83.36;101071.38;5027563;28;20419;-73
2022/01/07 10:29:37;;;;;;;0.20;0.20;;;;;;;4.44;83.43;101072.47;5046770;28;20083;-71
2022/01/07 10:32:29;;;;;;;0.30;0.30;;;;;;;4.40;83.69;101072.31;5037347;28;20030;-72
2022/01/07 10:35:13;;;;;;;0.20;0.20;;;;;;;4.44;84.15;101063.00;5037520;28;20101;-70
2022/01/07 10:38:00;;;;;;;0.33;0.33;;;;;;;4.52;84.17;101072.09;5037205;28;20044;-69
2022/01/07 10:40:33;;;;;;;0.20;0.20;;;;;;;4.64;84.04;101071.00;5036849;28;20021;-74
2022/01/07 10:43:25;;;;;;;0.20;0.20;;;;;;;4.75;83.20;101064.72;5016137;28;20033;-73
2022/01/07 10:46:07;;;;;;;0.10;0.10;;;;;;;4.72;83.03;101056.75;5030364;28;20075;-72
2022/01/07 10:48:49;;;;;;;0.40;0.40;;;;;;;4.79;82.28;101066.66;5036216;28;20063;-73
2022/01/07 10:51:18;;;;;;;0.30;0.30;;;;;;;4.71;82.71;101067.03;5036869;28;20288;-72
2022/01/07 10:53:55;;;;;;;0.27;0.27;;;;;;;4.70;82.60;101062.66;5035471;28;20028;-73
2022/01/07 10:56:24;;;;;;;0.43;0.43;;;;;;;4.62;82.72;101057.94;5016889;28;20430;-72
2022/01/07 10:58:55;;;;;;;0.40;0.40;;;;;;;4.57;82.50;101054.19;5016288;28;20037;-73
2022/01/07 11:01:21;;;;;;;0.40;0.40;;;;;;;4.54;83.01;101048.81;5022309;28;20104;-73
2022/01/07 11:03:51;;;;;;;0.40;0.40;;;;;;;4.46;82.59;101038.03;5017315;28;20329;-71
2022/01/07 11:06:16;;;;;;;0.30;0.30;;;;;;;4.41;79.83;101044.66;5029686;28;20029;-71
2022/01/07 11:08:42;;;;;;;0.20;0.20;;;;;;;4.38;79.16;101044.47;5036782;28;20021;-72
2022/01/07 11:11:11;;;;;;;0.40;0.40;;;;;;;4.37;78.99;101053.06;5032880;28;20025;-72
2022/01/07 11:13:37;;;;;;;0.30;0.30;;;;;;;4.35;78.58;101058.16;5036794;28;20029;-70
2022/01/07 11:16:04;;;;;;;0.30;0.30;;;;;;;4.39;79.09;101056.63;5017459;28;20021;-73
2022/01/07 11:18:31;;;;;;;0.20;0.20;;;;;;;4.40;78.63;101054.16;5015415;28;20373;-72
2022/01/07 11:20:58;;;;;;;0.20;0.20;;;;;;;4.43;78.16;101058.63;5022957;28;20034;-71
2022/01/07 11:23:28;;;;;;;0.30;0.30;;;;;;;4.45;76.87;101069.06;5036892;28;20068;-72
2022/01/07 11:26:19;;;;;;;0.37;0.37;;;;;;;4.52;76.18;101058.22;5021702;28;20264;-72
2022/01/07 11:29:06;;;;;;;0.50;0.50;;;;;;;4.57;74.28;101059.38;5023458;28;20447;-69
2022/01/07 11:31:31;;;;;;;0.30;0.30;;;;;;;4.65;72.80;101054.63;5021095;28;20022;-70
2022/01/07 11:34:32;;;;;;;0.40;0.40;;;;;;;4.67;73.38;101051.31;5021765;28;20045;-72
2022/01/07 11:36:57;;;;;;;0.40;0.40;;;;;;;4.61;72.28;101056.16;5022207;28;20428;-73
2022/01/07 11:39:22;;;;;;;0.40;0.40;;;;;;;4.57;72.63;101046.41;5040728;28;20073;-72
2022/01/07 11:41:56;;;;;;;0.53;0.53;;;;;;;4.51;70.19;101049.56;5027528;28;20025;-74
2022/01/07 11:44:23;;;;;;;0.50;0.50;;;;;;;4.53;71.82;101037.56;5023190;28;20037;-74
2022/01/07 11:46:48;;;;;;;0.30;0.30;;;;;;;4.47;72.85;101031.13;5028946;28;20081;-74